createdAt,value
2023-01-19T00:02:14.517Z,27
2023-01-19T00:04:44.961Z,24
2023-01-19T00:07:15.100Z,26
2023-01-19T00:09:45.012Z,28
2023-01-19T00:12:15.266Z,28
2023-01-19T00:14:45.706Z,24
2023-01-19T00:17:16.226Z,24
2023-01-19T00:19:46.507Z,24
2023-01-19T00:22:16.898Z,26
2023-01-19T00:24:47.026Z,27
2023-01-19T00:27:17.342Z,28
2023-01-19T00:29:47.606Z,28
2023-01-19T00:32:18.066Z,28
2023-01-19T00:34:48.541Z,24
2023-01-19T00:37:18.799Z,32
2023-01-19T00:39:49.108Z,20
2023-01-19T00:42:19.277Z,20
2023-01-19T00:44:49.742Z,24
2023-01-19T00:47:20.182Z,20
2023-01-19T00:49:50.383Z,16
2023-01-19T00:52:20.605Z,12
2023-01-19T00:54:50.807Z,14
2023-01-19T00:57:21.087Z,12
2023-01-19T00:59:52.804Z,14
2023-01-19T01:02:23.191Z,12
2023-01-19T01:04:53.219Z,12
2023-01-19T01:07:23.513Z,8
2023-01-19T01:09:53.876Z,8
2023-01-19T01:12:24.164Z,4
2023-01-19T01:14:54.561Z,8
2023-01-19T01:17:24.948Z,8
2023-01-19T01:19:55.264Z,4
2023-01-19T01:22:25.700Z,5
2023-01-19T01:24:56.078Z,4
2023-01-19T01:27:26.519Z,4
2023-01-19T01:29:56.693Z,0
2023-01-19T01:32:26.909Z,4
2023-01-19T01:34:57.373Z,0
2023-01-19T01:37:27.859Z,4
2023-01-19T01:39:58.252Z,0
2023-01-19T01:42:29.065Z,0
2023-01-19T01:44:59.639Z,0
2023-01-19T01:47:29.919Z,4
2023-01-19T01:50:00.265Z,2
2023-01-19T01:52:30.824Z,0
2023-01-19T01:55:01.232Z,2
2023-01-19T01:57:31.674Z,0
2023-01-19T02:00:01.898Z,0
2023-01-19T02:02:32.264Z,0
2023-01-19T02:05:02.734Z,0
2023-01-19T02:07:33.206Z,2
2023-01-19T02:10:03.654Z,0
2023-01-19T02:12:34.126Z,0
2023-01-19T02:15:04.372Z,0
2023-01-19T02:17:34.802Z,4
2023-01-19T02:20:05.134Z,0
2023-01-19T02:22:35.628Z,4
2023-01-19T02:25:06.125Z,0
2023-01-19T02:27:36.341Z,0
2023-01-19T02:30:06.697Z,4
2023-01-19T02:32:37.107Z,0
2023-01-19T02:35:07.630Z,0
2023-01-19T02:37:37.915Z,0
2023-01-19T02:40:08.339Z,0
2023-01-19T02:42:38.640Z,0
2023-01-19T02:45:08.917Z,0
2023-01-19T02:47:39.232Z,0
2023-01-19T02:50:09.696Z,0
2023-01-19T02:52:40.021Z,0
2023-01-19T02:55:10.437Z,4
2023-01-19T02:57:40.851Z,4
2023-01-19T03:00:11.104Z,0
2023-01-19T03:02:41.280Z,0
2023-01-19T03:05:11.541Z,0
2023-01-19T03:07:42.064Z,0
2023-01-19T03:10:12.457Z,0
2023-01-19T03:12:42.845Z,0
2023-01-19T03:15:13.441Z,0
2023-01-19T03:17:43.611Z,0
2023-01-19T03:20:13.963Z,0
2023-01-19T03:22:44.292Z,0
2023-01-19T03:25:14.618Z,0
2023-01-19T03:27:45.062Z,0
2023-01-19T03:30:15.486Z,0
2023-01-19T03:32:45.840Z,0
2023-01-19T03:35:16.146Z,0
2023-01-19T03:37:46.525Z,0
2023-01-19T03:40:16.984Z,0
2023-01-19T03:42:47.411Z,0
2023-01-19T03:45:17.742Z,0
2023-01-19T03:47:48.155Z,0
2023-01-19T03:50:18.350Z,0
2023-01-19T03:52:48.794Z,0
2023-01-19T03:55:19.176Z,0
2023-01-19T03:57:49.501Z,0
2023-01-19T04:00:19.962Z,0
2023-01-19T04:02:50.215Z,0
2023-01-19T04:05:20.657Z,0
2023-01-19T04:07:50.983Z,0
2023-01-19T04:10:21.464Z,0
2023-01-19T04:12:51.744Z,0
2023-01-19T04:15:22.189Z,0
2023-01-19T04:17:52.483Z,0
2023-01-19T04:20:22.839Z,0
2023-01-19T04:22:52.924Z,0
2023-01-19T04:25:23.128Z,0
2023-01-19T04:27:53.619Z,0
2023-01-19T04:30:24.096Z,0
2023-01-19T04:32:54.449Z,0
2023-01-19T04:35:24.761Z,0
2023-01-19T04:37:55.217Z,0
2023-01-19T04:40:25.496Z,0
2023-01-19T04:42:55.974Z,0
2023-01-19T04:45:26.329Z,0
2023-01-19T04:47:56.561Z,0
2023-01-19T04:50:26.801Z,0
2023-01-19T04:52:57.093Z,0
2023-01-19T04:55:27.499Z,0
2023-01-19T04:57:57.982Z,0
2023-01-19T05:00:28.216Z,0
2023-01-19T05:02:58.566Z,0
2023-01-19T05:05:29.207Z,0
2023-01-19T05:07:59.403Z,0
2023-01-19T05:10:29.825Z,0
2023-01-19T05:13:00.465Z,0
2023-01-19T05:15:30.485Z,0
2023-01-19T05:18:00.550Z,0
2023-01-19T05:20:30.836Z,0
2023-01-19T05:23:01.619Z,0
2023-01-19T05:25:31.666Z,0
2023-01-19T05:28:01.913Z,0
2023-01-19T05:30:32.231Z,2
2023-01-19T05:33:02.962Z,0
2023-01-19T05:35:36.075Z,0
2023-01-19T05:38:03.226Z,0
2023-01-19T05:40:33.410Z,0
2023-01-19T05:43:04.037Z,4
2023-01-19T05:45:33.741Z,4
2023-01-19T05:48:03.930Z,0
2023-01-19T05:50:34.091Z,4
2023-01-19T05:53:04.378Z,4
2023-01-19T05:55:34.544Z,4
2023-01-19T05:58:04.830Z,0
2023-01-19T06:00:35.191Z,8
2023-01-19T06:03:05.568Z,4
2023-01-19T06:05:35.848Z,2
2023-01-19T06:08:06.217Z,0
2023-01-19T06:10:36.573Z,0
2023-01-19T06:13:06.965Z,0
2023-01-19T06:15:37.404Z,0
2023-01-19T06:18:07.716Z,0
2023-01-19T06:20:38.082Z,0
2023-01-19T06:23:08.211Z,4
2023-01-19T06:25:38.378Z,0
2023-01-19T06:28:08.658Z,2
2023-01-19T06:30:39.153Z,0
2023-01-19T06:33:09.426Z,4
2023-01-19T06:35:39.753Z,4
2023-01-19T06:38:10.050Z,4
2023-01-19T06:40:40.439Z,8
2023-01-19T06:43:10.652Z,4
2023-01-19T06:45:41.149Z,6
2023-01-19T06:48:11.515Z,4
2023-01-19T06:50:41.679Z,0
2023-01-19T06:53:12.078Z,6
2023-01-19T06:55:42.589Z,8
2023-01-19T06:58:13.023Z,8
2023-01-19T07:00:43.369Z,4
2023-01-19T07:03:13.758Z,4
2023-01-19T07:05:44.177Z,8
2023-01-19T07:08:14.684Z,8
2023-01-19T07:11:21.696Z,6
2023-01-19T07:13:15.466Z,8
2023-01-19T07:15:45.689Z,8
2023-01-19T07:18:16.099Z,6
2023-01-19T07:20:46.550Z,8
2023-01-19T07:23:17.015Z,10
2023-01-19T07:25:47.504Z,8
2023-01-19T07:28:17.939Z,12
2023-01-19T07:30:48.459Z,10
2023-01-19T07:33:18.722Z,20
2023-01-19T07:35:49.098Z,20
2023-01-19T07:38:19.522Z,21
2023-01-19T07:40:49.798Z,20
2023-01-19T07:43:20.011Z,31
2023-01-19T07:45:50.088Z,20
2023-01-19T07:48:19.715Z,12
2023-01-19T07:50:49.667Z,12
2023-01-19T07:53:20.187Z,15
2023-01-19T07:55:50.639Z,20
2023-01-19T07:58:20.963Z,16
2023-01-19T08:00:51.356Z,8
2023-01-19T08:03:21.461Z,8
2023-01-19T08:05:51.813Z,8
2023-01-19T08:08:22.124Z,12
2023-01-19T08:10:52.400Z,10
2023-01-19T08:13:22.747Z,16
2023-01-19T08:15:53.118Z,30
2023-01-19T08:18:23.455Z,22
2023-01-19T08:20:53.730Z,20
2023-01-19T08:23:24.201Z,12
2023-01-19T08:25:55.212Z,0
2023-01-19T08:28:25.339Z,2
2023-01-19T08:30:55.832Z,4
2023-01-19T08:33:25.985Z,4
2023-01-19T08:35:57.027Z,4
2023-01-19T08:38:27.275Z,8
2023-01-19T08:40:57.463Z,8
2023-01-19T08:43:27.873Z,2
2023-01-19T08:45:58.379Z,4
2023-01-19T08:48:28.884Z,6
2023-01-19T08:50:59.952Z,4
2023-01-19T08:53:30.207Z,0
2023-01-19T08:56:00.563Z,0
2023-01-19T08:58:31.009Z,5
2023-01-19T09:01:05.117Z,23
2023-01-19T09:03:35.183Z,4
2023-01-19T09:06:05.573Z,4
2023-01-19T09:08:35.791Z,8
2023-01-19T09:11:06.253Z,4
2023-01-19T09:13:36.489Z,4
2023-01-19T09:16:06.927Z,4
2023-01-19T09:18:37.393Z,0
2023-01-19T09:21:08.642Z,4
2023-01-19T09:23:38.943Z,0
2023-01-19T09:26:09.986Z,0
2023-01-19T09:28:40.310Z,0
2023-01-19T09:31:11.524Z,0
2023-01-19T09:33:41.858Z,2
2023-01-19T09:36:12.813Z,0
2023-01-19T09:38:43.070Z,0
2023-01-19T09:41:13.567Z,2
2023-01-19T09:43:43.929Z,0
2023-01-19T09:46:14.395Z,0
2023-01-19T09:48:44.936Z,0
2023-01-19T09:51:16.012Z,0
2023-01-19T09:53:46.304Z,0
2023-01-19T09:56:17.411Z,0
2023-01-19T09:58:47.945Z,4
2023-01-19T10:01:19.035Z,0
2023-01-19T10:03:49.417Z,2
2023-01-19T10:06:20.428Z,0
2023-01-19T10:08:50.670Z,0
2023-01-19T10:11:21.749Z,2
2023-01-19T10:13:51.911Z,0
2023-01-19T10:16:22.254Z,0
2023-01-19T10:18:52.696Z,2
2023-01-19T10:21:23.574Z,4
2023-01-19T10:23:53.755Z,2
2023-01-19T10:26:24.835Z,0
2023-01-19T10:28:55.237Z,0
2023-01-19T10:31:25.754Z,4
2023-01-19T10:33:56.417Z,0
2023-01-19T10:36:26.749Z,0
2023-01-19T10:38:57.580Z,0
2023-01-19T10:41:27.845Z,0
2023-01-19T10:43:58.369Z,0
2023-01-19T10:46:29.386Z,0
2023-01-19T10:48:59.764Z,0
2023-01-19T10:51:30.125Z,0
2023-01-19T10:54:00.858Z,2
2023-01-19T10:56:31.195Z,0
2023-01-19T10:59:01.558Z,0
2023-01-19T11:01:32.339Z,0
2023-01-19T11:04:03.175Z,0
2023-01-19T11:06:33.367Z,0
2023-01-19T11:09:03.703Z,0
2023-01-19T11:11:34.127Z,0
2023-01-19T11:14:05.132Z,0
2023-01-19T11:16:35.494Z,0
2023-01-19T11:19:06.663Z,0
2023-01-19T11:21:37.067Z,0
2023-01-19T11:24:07.929Z,0
2023-01-19T11:26:38.236Z,0
2023-01-19T11:29:09.028Z,0
2023-01-19T11:31:39.349Z,0
2023-01-19T11:34:09.803Z,0
2023-01-19T11:36:40.195Z,0
2023-01-19T11:39:11.277Z,0
2023-01-19T11:41:41.513Z,0
2023-01-19T11:44:11.764Z,0
2023-01-19T11:46:42.207Z,0
2023-01-19T11:49:12.864Z,4
2023-01-19T11:51:43.129Z,0
2023-01-19T11:54:14.104Z,0
2023-01-19T11:56:44.429Z,0
2023-01-19T11:59:14.828Z,0
2023-01-19T12:01:45.203Z,0
2023-01-19T12:04:16.292Z,0
2023-01-19T12:06:46.478Z,0
2023-01-19T12:09:17.368Z,0
2023-01-19T12:11:47.536Z,0
2023-01-19T12:14:17.769Z,16
2023-01-19T12:16:48.863Z,20
2023-01-19T12:19:19.058Z,23
2023-01-19T12:21:49.705Z,31
2023-01-19T12:24:19.953Z,20
2023-01-19T12:26:50.921Z,33
2023-01-19T12:29:21.044Z,44
2023-01-19T12:31:52.056Z,40
2023-01-19T12:34:22.250Z,36
2023-01-19T12:36:53.197Z,38
2023-01-19T12:39:23.293Z,36
2023-01-19T12:41:53.798Z,44
2023-01-19T12:44:23.993Z,36
2023-01-19T12:46:54.477Z,30
2023-01-19T12:49:24.831Z,32
2023-01-19T12:51:55.079Z,34
2023-01-19T12:54:25.403Z,32
2023-01-19T12:56:56.353Z,32
2023-01-19T12:59:26.599Z,28
2023-01-19T13:01:56.620Z,25
2023-01-19T13:04:27.023Z,22
2023-01-19T13:06:57.253Z,24
2023-01-19T13:09:27.573Z,16
2023-01-19T13:12:00.883Z,16
2023-01-19T13:14:28.784Z,18
2023-01-19T13:16:59.197Z,20
2023-01-19T13:19:30.245Z,16
2023-01-19T13:22:00.428Z,16
2023-01-19T13:24:31.512Z,16
2023-01-19T13:27:01.773Z,18
2023-01-19T13:29:32.071Z,16
2023-01-19T13:32:02.481Z,12
2023-01-19T13:34:33.576Z,12
2023-01-19T13:37:03.798Z,8
2023-01-19T13:39:34.831Z,12
2023-01-19T13:42:05.155Z,15
2023-01-19T13:44:36.100Z,12
2023-01-19T13:47:06.302Z,8
2023-01-19T13:49:36.803Z,4
2023-01-19T13:52:07.171Z,4
2023-01-19T13:54:38.025Z,8
2023-01-19T13:57:08.422Z,8
2023-01-19T13:59:39.443Z,8
2023-01-19T14:02:09.663Z,6
2023-01-19T14:04:40.110Z,16
2023-01-19T14:07:10.266Z,16
2023-01-19T14:09:40.520Z,16
2023-01-19T14:12:10.775Z,22
2023-01-19T14:14:41.812Z,18
2023-01-19T14:17:11.941Z,19
2023-01-19T14:19:42.211Z,20
2023-01-19T14:22:12.481Z,20
2023-01-19T14:24:43.443Z,14
2023-01-19T14:27:14.132Z,16
2023-01-19T14:29:44.463Z,14
2023-01-19T14:32:15.459Z,18
2023-01-19T14:34:45.559Z,20
2023-01-19T14:37:15.883Z,16
2023-01-19T14:39:46.791Z,16
2023-01-19T14:42:17.552Z,16
2023-01-19T14:44:47.925Z,24
2023-01-19T14:47:17.992Z,20
2023-01-19T14:49:48.291Z,16
2023-01-19T14:52:18.537Z,18
2023-01-19T14:54:49.485Z,20
2023-01-19T14:57:19.737Z,37
2023-01-19T14:59:49.701Z,24
2023-01-19T15:02:20.680Z,44
2023-01-19T15:04:50.856Z,14
2023-01-19T15:07:21.143Z,12
2023-01-19T15:09:51.627Z,24
2023-01-19T15:12:22.491Z,40
2023-01-19T15:14:52.903Z,27
2023-01-19T15:17:23.734Z,36
2023-01-19T15:19:54.759Z,20
2023-01-19T15:22:25.133Z,18
2023-01-19T15:24:56.300Z,12
2023-01-19T15:27:26.662Z,12
2023-01-19T15:29:57.441Z,14
2023-01-19T15:32:27.721Z,12
2023-01-19T15:34:58.139Z,20
2023-01-19T15:37:28.462Z,20
2023-01-19T15:39:58.827Z,18
2023-01-19T15:42:29.689Z,12
2023-01-19T15:45:00.295Z,35
2023-01-19T15:47:30.551Z,12
2023-01-19T15:50:00.761Z,27
2023-01-19T15:52:34.701Z,16
2023-01-19T15:55:04.809Z,16
2023-01-19T15:57:35.615Z,17
2023-01-19T16:00:05.987Z,12
2023-01-19T16:02:36.305Z,14
2023-01-19T16:05:07.258Z,20
2023-01-19T16:07:37.362Z,16
2023-01-19T16:10:08.061Z,20
2023-01-19T16:12:37.499Z,24
2023-01-19T16:15:08.022Z,16
2023-01-19T16:17:38.577Z,32
2023-01-19T16:20:09.098Z,12
2023-01-19T16:22:39.726Z,10
2023-01-19T16:25:10.109Z,16
2023-01-19T16:27:40.986Z,12
2023-01-19T16:30:11.814Z,16
2023-01-19T16:32:41.815Z,15
2023-01-19T16:35:12.202Z,12
2023-01-19T16:37:44.205Z,12
2023-01-19T16:40:14.509Z,12
2023-01-19T16:42:45.526Z,19
2023-01-19T16:45:15.817Z,12
2023-01-19T16:47:46.096Z,16
2023-01-19T16:50:16.131Z,16
2023-01-19T16:52:46.485Z,20
2023-01-19T16:55:16.890Z,18
2023-01-19T16:57:47.356Z,16
2023-01-19T17:00:17.676Z,20
2023-01-19T17:02:48.701Z,20
2023-01-19T17:05:18.791Z,18
2023-01-19T17:07:49.666Z,16
2023-01-19T17:10:19.830Z,16
2023-01-19T17:12:49.959Z,16
2023-01-19T17:15:20.824Z,12
2023-01-19T17:17:50.993Z,16
2023-01-19T17:20:21.222Z,16
2023-01-19T17:22:51.683Z,16
2023-01-19T17:25:22.070Z,20
2023-01-19T17:27:52.516Z,20
2023-01-19T17:30:22.828Z,20
2023-01-19T17:32:53.144Z,22
2023-01-19T17:35:24.068Z,20
2023-01-19T17:37:55.012Z,20
2023-01-19T17:40:25.130Z,18
2023-01-19T17:42:55.486Z,20
2023-01-19T17:45:25.776Z,16
2023-01-19T17:47:56.048Z,14
2023-01-19T17:50:26.301Z,18
2023-01-19T17:52:56.765Z,20
2023-01-19T17:55:27.491Z,20
2023-01-19T17:58:00.291Z,16
2023-01-19T18:00:28.543Z,20
2023-01-19T18:02:59.573Z,18
2023-01-19T18:05:30.016Z,19
2023-01-19T18:08:00.280Z,20
2023-01-19T18:10:31.168Z,20
2023-01-19T18:13:01.600Z,23
2023-01-19T18:15:32.555Z,16
2023-01-19T18:18:02.562Z,16
2023-01-19T18:20:33.559Z,18
2023-01-19T18:23:03.788Z,24
2023-01-19T18:25:33.986Z,24
2023-01-19T18:28:04.458Z,20
2023-01-19T18:30:34.764Z,28
2023-01-19T18:33:04.988Z,24
2023-01-19T18:35:35.325Z,26
2023-01-19T18:38:05.464Z,28
2023-01-19T18:40:36.250Z,28
2023-01-19T18:43:06.482Z,26
2023-01-19T18:45:37.472Z,28
2023-01-19T18:48:07.741Z,22
2023-01-19T18:50:38.409Z,24
2023-01-19T18:53:08.303Z,24
2023-01-19T18:55:38.619Z,24
2023-01-19T18:58:09.775Z,32
2023-01-19T19:00:40.140Z,34
2023-01-19T19:03:11.119Z,31
2023-01-19T19:05:41.325Z,26
2023-01-19T19:08:11.553Z,34
2023-01-19T19:10:41.908Z,32
2023-01-19T19:13:12.132Z,36
2023-01-19T19:15:42.547Z,36
2023-01-19T19:18:13.380Z,38
2023-01-19T19:20:43.859Z,36
2023-01-19T19:23:14.575Z,40
2023-01-19T19:25:44.708Z,36
2023-01-19T19:28:15.014Z,46
2023-01-19T19:30:45.283Z,44
2023-01-19T19:33:15.551Z,44
2023-01-19T19:35:45.906Z,42
2023-01-19T19:38:15.949Z,40
2023-01-19T19:40:46.126Z,44
2023-01-19T19:43:17.039Z,40
2023-01-19T19:45:47.225Z,43
2023-01-19T19:48:17.568Z,36
2023-01-19T19:50:47.805Z,35
2023-01-19T19:53:18.800Z,40
2023-01-19T19:55:48.523Z,36
2023-01-19T19:58:19.302Z,36
2023-01-19T20:00:51.022Z,38
2023-01-19T20:03:21.020Z,26
2023-01-19T20:05:51.060Z,28
2023-01-19T20:08:22.010Z,31
2023-01-19T20:10:52.306Z,28
2023-01-19T20:13:22.644Z,29
2023-01-19T20:15:52.893Z,29
2023-01-19T20:18:22.999Z,34
2023-01-19T20:20:53.398Z,36
2023-01-19T20:23:23.742Z,26
2023-01-19T20:25:53.983Z,28
2023-01-19T20:28:24.302Z,32
2023-01-19T20:30:54.417Z,36
2023-01-19T20:33:25.231Z,32
2023-01-19T20:35:55.549Z,28
2023-01-19T20:38:25.768Z,33
2023-01-19T20:40:56.035Z,34
2023-01-19T20:43:26.285Z,28
2023-01-19T20:45:56.672Z,28
2023-01-19T20:48:26.893Z,38
2023-01-19T20:50:57.143Z,33
2023-01-19T20:53:27.519Z,34
2023-01-19T20:55:57.684Z,36
2023-01-19T20:58:27.854Z,36
2023-01-19T21:00:58.407Z,36
2023-01-19T21:03:28.656Z,39
2023-01-19T21:05:59.663Z,32
2023-01-19T21:08:29.691Z,40
2023-01-19T21:11:00.583Z,40
2023-01-19T21:13:30.927Z,34
2023-01-19T21:16:01.282Z,40
2023-01-19T21:18:31.302Z,42
2023-01-19T21:21:02.204Z,40
2023-01-19T21:23:32.425Z,40
2023-01-19T21:26:02.713Z,40
2023-01-19T21:28:32.762Z,44
2023-01-19T21:31:03.174Z,42
2023-01-19T21:33:33.363Z,51
2023-01-19T21:36:03.503Z,40
2023-01-19T21:38:33.556Z,48
2023-01-19T21:41:03.804Z,43
2023-01-19T21:43:34.642Z,44
2023-01-19T21:46:05.142Z,48
2023-01-19T21:48:35.297Z,45
2023-01-19T21:51:06.198Z,48
2023-01-19T21:56:07.140Z,47
2023-01-19T21:58:37.194Z,46
2023-01-19T22:01:07.459Z,48
2023-01-19T22:03:37.675Z,44
2023-01-19T22:06:08.692Z,46
2023-01-19T22:08:38.865Z,44
2023-01-19T22:11:09.738Z,44
2023-01-19T22:13:40.058Z,44
2023-01-19T22:16:10.954Z,42
2023-01-19T22:18:41.213Z,46
2023-01-19T22:21:11.455Z,45
2023-01-19T22:23:41.793Z,47
2023-01-19T22:26:12.565Z,44
2023-01-19T22:28:43.382Z,44
2023-01-19T22:31:13.620Z,44
2023-01-19T22:33:44.279Z,40
2023-01-19T22:36:14.497Z,44
2023-01-19T22:38:45.452Z,44
2023-01-19T22:41:15.784Z,48
2023-01-19T22:43:48.187Z,44
2023-01-19T22:46:18.386Z,51
2023-01-19T22:48:48.700Z,44
2023-01-19T22:51:19.049Z,47
2023-01-19T22:53:49.384Z,52
2023-01-19T22:56:19.874Z,48
2023-01-19T22:58:49.789Z,40
2023-01-19T23:01:20.360Z,49
2023-01-19T23:03:50.504Z,44
2023-01-19T23:06:20.839Z,48
2023-01-19T23:08:51.042Z,44
2023-01-19T23:11:21.702Z,43
2023-01-19T23:13:51.985Z,46
2023-01-19T23:16:22.959Z,46
2023-01-19T23:18:53.484Z,47
2023-01-19T23:21:24.376Z,40
2023-01-19T23:23:54.505Z,45
2023-01-19T23:26:25.579Z,42
2023-01-19T23:28:55.477Z,48
2023-01-19T23:31:26.397Z,42
2023-01-19T23:33:56.516Z,44
2023-01-19T23:36:27.071Z,40
2023-01-19T23:38:57.182Z,43
2023-01-19T23:41:27.532Z,43
2023-01-19T23:43:57.421Z,46
2023-01-19T23:46:27.672Z,44
2023-01-19T23:48:57.660Z,47
2023-01-19T23:51:28.114Z,43
2023-01-19T23:53:58.273Z,46
2023-01-19T23:56:28.302Z,64
2023-01-19T23:58:58.790Z,68
